createdAt,value
2023-01-17T00:00:27.135Z,9.278477
2023-01-17T00:01:27.084Z,9.278632
2023-01-17T00:02:27.140Z,9.278556
2023-01-17T00:03:27.079Z,9.278618
2023-01-17T00:04:27.062Z,9.278631
2023-01-17T00:05:27.018Z,9.278359
2023-01-17T00:06:27.013Z,9.278417
2023-01-17T00:07:27.013Z,9.278394
2023-01-17T00:09:00.389Z,9.278362
2023-01-17T00:09:26.956Z,9.278573
2023-01-17T00:10:26.943Z,9.278405
2023-01-17T00:11:26.917Z,9.278463
2023-01-17T00:12:26.902Z,9.278366
2023-01-17T00:13:26.879Z,9.278164
2023-01-17T00:14:26.921Z,9.278449
2023-01-17T00:15:26.883Z,9.278454
2023-01-17T00:16:26.832Z,9.278515
2023-01-17T00:17:26.810Z,9.278586
2023-01-17T00:18:26.793Z,9.278290
2023-01-17T00:19:26.819Z,9.278214
2023-01-17T00:20:26.791Z,9.278501
2023-01-17T00:21:26.742Z,9.278518
2023-01-17T00:22:26.726Z,9.278543
2023-01-17T00:23:26.721Z,9.278511
2023-01-17T00:24:26.734Z,9.278408
2023-01-17T00:25:26.681Z,9.278374
2023-01-17T00:26:26.661Z,9.278372
2023-01-17T00:27:26.653Z,9.278467
2023-01-17T00:28:26.642Z,9.278455
2023-01-17T00:29:26.644Z,9.278359
2023-01-17T00:30:26.595Z,9.278351
2023-01-17T00:31:26.656Z,9.278292
2023-01-17T00:32:26.568Z,9.278382
2023-01-17T00:33:26.538Z,9.278384
2023-01-17T00:34:26.546Z,9.278453
2023-01-17T00:35:26.514Z,9.278480
2023-01-17T00:36:26.484Z,9.278482
2023-01-17T00:37:26.465Z,9.278458
2023-01-17T00:38:26.484Z,9.278415
2023-01-17T00:39:26.496Z,9.278378
2023-01-17T00:40:26.431Z,9.278490
2023-01-17T00:41:26.401Z,9.278461
2023-01-17T00:42:26.400Z,9.278421
2023-01-17T00:43:26.379Z,9.278491
2023-01-17T00:44:26.384Z,9.278597
2023-01-17T00:45:26.338Z,9.278348
2023-01-17T00:46:26.351Z,9.278471
2023-01-17T00:47:26.297Z,9.277861
2023-01-17T00:48:26.286Z,9.278255
2023-01-17T00:49:26.298Z,9.278281
2023-01-17T00:50:26.246Z,9.278524
2023-01-17T00:51:26.229Z,9.278841
2023-01-17T00:52:26.206Z,9.278250
2023-01-17T00:53:26.218Z,9.278262
2023-01-17T00:54:26.238Z,9.278233
2023-01-17T00:55:26.207Z,9.278387
2023-01-17T00:56:26.157Z,9.278447
2023-01-17T00:57:26.352Z,9.278396
2023-01-17T00:58:26.101Z,9.278375
2023-01-17T00:59:26.111Z,9.278333
2023-01-17T01:00:26.075Z,9.278330
2023-01-17T01:01:26.188Z,9.278316
2023-01-17T01:02:28.440Z,9.278347
2023-01-17T01:03:27.013Z,9.278367
2023-01-17T01:04:26.035Z,9.278350
2023-01-17T01:05:25.992Z,9.278410
2023-01-17T01:06:25.971Z,9.278187
2023-01-17T01:07:25.950Z,9.278437
2023-01-17T01:08:25.943Z,9.278361
2023-01-17T01:09:25.944Z,9.278338
2023-01-17T01:10:25.915Z,9.278360
2023-01-17T01:11:25.881Z,9.278285
2023-01-17T01:12:25.859Z,9.278294
2023-01-17T01:13:25.870Z,9.278306
2023-01-17T01:14:25.885Z,9.278292
2023-01-17T01:15:25.809Z,9.278305
2023-01-17T01:16:25.862Z,9.278373
2023-01-17T01:17:25.783Z,9.278306
2023-01-17T01:18:25.803Z,9.278290
2023-01-17T01:19:25.786Z,9.278268
2023-01-17T01:20:25.738Z,9.278309
2023-01-17T01:21:26.725Z,9.278352
2023-01-17T01:22:25.702Z,9.278358
2023-01-17T01:23:25.680Z,9.278232
2023-01-17T01:24:25.685Z,9.278009
2023-01-17T01:25:25.648Z,9.278151
2023-01-17T01:26:25.634Z,9.278274
2023-01-17T01:27:25.609Z,9.278205
2023-01-17T01:28:25.606Z,9.278271
2023-01-17T01:29:25.597Z,9.278255
2023-01-17T01:30:25.562Z,9.278244
2023-01-17T01:31:25.626Z,9.278141
2023-01-17T01:32:25.522Z,9.278279
2023-01-17T01:33:25.509Z,9.278186
2023-01-17T01:34:25.549Z,9.278305
2023-01-17T01:35:25.479Z,9.278276
2023-01-17T01:36:25.477Z,9.278286
2023-01-17T01:37:25.445Z,9.278131
2023-01-17T01:38:25.456Z,9.278045
2023-01-17T01:39:25.428Z,9.278172
2023-01-17T01:40:25.393Z,9.278075
2023-01-17T01:41:25.377Z,9.278070
2023-01-17T01:42:25.367Z,9.278115
2023-01-17T01:43:25.330Z,9.278074
2023-01-17T01:44:25.344Z,9.278214
2023-01-17T01:45:25.357Z,9.278419
2023-01-17T01:46:25.296Z,9.278347
2023-01-17T01:47:25.262Z,9.278419
2023-01-17T01:48:25.277Z,9.278373
2023-01-17T01:49:25.273Z,9.278273
2023-01-17T01:50:25.228Z,9.278196
2023-01-17T01:51:25.200Z,9.278190
2023-01-17T01:52:25.190Z,9.278266
2023-01-17T01:53:25.169Z,9.278200
2023-01-17T01:54:25.180Z,9.278160
2023-01-17T01:55:25.139Z,9.278244
2023-01-17T01:56:25.118Z,9.278452
2023-01-17T01:57:25.101Z,9.278395
2023-01-17T01:58:25.089Z,9.278322
2023-01-17T01:59:25.088Z,9.278307
2023-01-17T02:00:25.043Z,9.278219
2023-01-17T02:01:25.101Z,9.278056
2023-01-17T02:02:25.005Z,9.278131
2023-01-17T02:03:24.999Z,9.278224
2023-01-17T02:04:25.018Z,9.278308
2023-01-17T02:05:24.976Z,9.278443
2023-01-17T02:06:24.936Z,9.278305
2023-01-17T02:07:24.931Z,9.278280
2023-01-17T02:08:24.902Z,9.278162
2023-01-17T02:09:24.921Z,9.278114
2023-01-17T02:10:24.903Z,9.278216
2023-01-17T02:11:24.897Z,9.278277
2023-01-17T02:12:24.828Z,9.278285
2023-01-17T02:13:24.833Z,9.278144
2023-01-17T02:14:24.831Z,9.278163
2023-01-17T02:15:24.784Z,9.278240
2023-01-17T02:16:24.837Z,9.278271
2023-01-17T02:17:24.767Z,9.278350
2023-01-17T02:18:24.730Z,9.278225
2023-01-17T02:19:24.771Z,9.278100
2023-01-17T02:20:24.709Z,9.278342
2023-01-17T02:21:24.711Z,9.278307
2023-01-17T02:22:24.674Z,9.278246
2023-01-17T02:23:24.647Z,9.278208
2023-01-17T02:24:24.657Z,9.278169
2023-01-17T02:25:24.612Z,9.278242
2023-01-17T02:26:24.612Z,9.278229
2023-01-17T02:27:24.580Z,9.278166
2023-01-17T02:28:24.570Z,9.278290
2023-01-17T02:29:24.581Z,9.278214
2023-01-17T02:30:24.533Z,9.278227
2023-01-17T02:31:24.536Z,9.278427
2023-01-17T02:32:24.488Z,9.278125
2023-01-17T02:33:24.473Z,9.278139
2023-01-17T02:34:24.500Z,9.278343
2023-01-17T02:35:24.446Z,9.278378
2023-01-17T02:36:24.445Z,9.278463
2023-01-17T02:37:24.420Z,9.278054
2023-01-17T02:38:24.390Z,9.277918
2023-01-17T02:39:24.418Z,9.278360
2023-01-17T02:40:24.356Z,9.278682
2023-01-17T02:41:24.348Z,9.278287
2023-01-17T02:42:24.322Z,9.278139
2023-01-17T02:43:24.310Z,9.278160
2023-01-17T02:44:24.290Z,9.278253
2023-01-17T02:45:24.290Z,9.278157
2023-01-17T02:46:24.248Z,9.278220
2023-01-17T02:47:24.243Z,9.278055
2023-01-17T02:48:24.201Z,9.278446
2023-01-17T02:49:25.232Z,9.278531
2023-01-17T02:50:24.179Z,9.278445
2023-01-17T02:51:24.162Z,9.278329
2023-01-17T02:52:24.168Z,9.277961
2023-01-17T02:53:24.144Z,9.278220
2023-01-17T02:54:24.107Z,9.278440
2023-01-17T02:55:24.137Z,9.278022
2023-01-17T02:56:24.077Z,9.278299
2023-01-17T02:57:24.055Z,9.278361
2023-01-17T02:58:24.047Z,9.278170
2023-01-17T02:59:24.018Z,9.278194
2023-01-17T03:00:24.048Z,9.278304
2023-01-17T03:01:24.083Z,9.278291
2023-01-17T03:02:24.005Z,9.278260
2023-01-17T03:03:23.954Z,9.278150
2023-01-17T03:04:23.941Z,9.278327
2023-01-17T03:05:23.951Z,9.278115
2023-01-17T03:06:23.903Z,9.278237
2023-01-17T03:07:23.881Z,9.278307
2023-01-17T03:08:23.864Z,9.278334
2023-01-17T03:09:23.849Z,9.278088
2023-01-17T03:10:23.895Z,9.278190
2023-01-17T03:11:23.837Z,9.278120
2023-01-17T03:12:23.793Z,9.277987
2023-01-17T03:13:23.783Z,9.277563
2023-01-17T03:14:23.779Z,9.277938
2023-01-17T03:15:23.789Z,9.278142
2023-01-17T03:16:23.828Z,9.278073
2023-01-17T03:17:23.722Z,9.278197
2023-01-17T03:18:23.690Z,9.278124
2023-01-17T03:19:23.691Z,9.278140
2023-01-17T03:20:23.698Z,9.278098
2023-01-17T03:21:23.649Z,9.278173
2023-01-17T03:22:23.631Z,9.278215
2023-01-17T03:23:23.615Z,9.278165
2023-01-17T03:24:23.593Z,9.278187
2023-01-17T03:25:23.606Z,9.278306
2023-01-17T03:26:23.590Z,9.278342
2023-01-17T03:27:23.545Z,9.278268
2023-01-17T03:28:23.536Z,9.278199
2023-01-17T03:29:23.507Z,9.278255
2023-01-17T03:30:23.557Z,9.278287
2023-01-17T03:31:23.478Z,9.278301
2023-01-17T03:32:23.465Z,9.278272
2023-01-17T03:33:23.450Z,9.278203
2023-01-17T03:34:23.429Z,9.278345
2023-01-17T03:35:23.455Z,9.278467
2023-01-17T03:36:23.402Z,9.278392
2023-01-17T03:37:23.372Z,9.278395
2023-01-17T03:38:23.357Z,9.278310
2023-01-17T03:39:23.347Z,9.278316
2023-01-17T03:40:23.372Z,9.278329
2023-01-17T03:41:23.306Z,9.278315
2023-01-17T03:42:23.285Z,9.278323
2023-01-17T03:43:23.286Z,9.278245
2023-01-17T03:44:23.249Z,9.278244
2023-01-17T03:45:23.261Z,9.278312
2023-01-17T03:46:23.218Z,9.278395
2023-01-17T03:47:23.212Z,9.278386
2023-01-17T03:48:23.185Z,9.278348
2023-01-17T03:49:23.184Z,9.278432
2023-01-17T03:50:23.188Z,9.278634
2023-01-17T03:51:23.140Z,9.278558
2023-01-17T03:52:24.123Z,9.278546
2023-01-17T03:53:23.125Z,9.278347
2023-01-17T03:54:23.089Z,9.278264
2023-01-17T03:55:23.128Z,9.278139
2023-01-17T03:56:23.055Z,9.278107
2023-01-17T03:57:23.033Z,9.278136
2023-01-17T03:58:23.024Z,9.278131
2023-01-17T03:59:23.006Z,9.278222
2023-01-17T04:00:23.015Z,9.278074
2023-01-17T04:01:23.071Z,9.278126
2023-01-17T04:02:23.042Z,9.278206
2023-01-17T04:03:22.933Z,9.278158
2023-01-17T04:04:22.937Z,9.278117
2023-01-17T04:05:22.931Z,9.278248
2023-01-17T04:06:22.887Z,9.278057
2023-01-17T04:07:22.866Z,9.278165
2023-01-17T04:08:22.855Z,9.278183
2023-01-17T04:09:22.846Z,9.278179
2023-01-17T04:10:22.852Z,9.278095
2023-01-17T04:11:22.828Z,9.278187
2023-01-17T04:12:22.790Z,9.278260
2023-01-17T04:13:22.754Z,9.278263
2023-01-17T04:14:22.756Z,9.278193
2023-01-17T04:15:22.754Z,9.278238
2023-01-17T04:16:22.717Z,9.278312
2023-01-17T04:17:22.720Z,9.278279
2023-01-17T04:18:22.670Z,9.278287
2023-01-17T04:19:22.679Z,9.278222
2023-01-17T04:20:22.673Z,9.278241
2023-01-17T04:21:22.631Z,9.278198
2023-01-17T04:22:22.591Z,9.278218
2023-01-17T04:23:22.597Z,9.278136
2023-01-17T04:24:22.556Z,9.278051
2023-01-17T04:25:22.585Z,9.278315
2023-01-17T04:26:22.524Z,9.278358
2023-01-17T04:27:22.518Z,9.278201
2023-01-17T04:28:22.493Z,9.278255
2023-01-17T04:29:22.483Z,9.278175
2023-01-17T04:30:22.492Z,9.278272
2023-01-17T04:31:22.476Z,9.278279
2023-01-17T04:32:22.421Z,9.278321
2023-01-17T04:33:22.416Z,9.278296
2023-01-17T04:34:22.387Z,9.278181
2023-01-17T04:35:22.425Z,9.278307
2023-01-17T04:36:22.354Z,9.278007
2023-01-17T04:37:22.389Z,9.278054
2023-01-17T04:38:22.379Z,9.278275
2023-01-17T04:39:22.302Z,9.278428
2023-01-17T04:40:22.325Z,9.278261
2023-01-17T04:41:22.267Z,9.278180
2023-01-17T04:42:22.262Z,9.278171
2023-01-17T04:43:22.240Z,9.278196
2023-01-17T04:44:22.221Z,9.278240
2023-01-17T04:45:22.243Z,9.278428
2023-01-17T04:46:22.202Z,9.278776
2023-01-17T04:47:22.191Z,9.278368
2023-01-17T04:48:22.146Z,9.278462
2023-01-17T04:49:22.135Z,9.278309
2023-01-17T04:50:22.155Z,9.278255
2023-01-17T04:51:22.097Z,9.278258
2023-01-17T04:52:22.091Z,9.278228
2023-01-17T04:53:22.094Z,9.278150
2023-01-17T04:54:22.046Z,9.278311
2023-01-17T04:55:22.086Z,9.278388
2023-01-17T04:56:22.011Z,9.278378
2023-01-17T04:57:22.011Z,9.278524
2023-01-17T04:58:21.984Z,9.278254
2023-01-17T04:59:21.976Z,9.278364
2023-01-17T05:00:24.051Z,9.278584
2023-01-17T05:01:23.058Z,9.278418
2023-01-17T05:02:22.978Z,9.278541
2023-01-17T05:03:21.902Z,9.278279
2023-01-17T05:04:21.867Z,9.278376
2023-01-17T05:05:21.890Z,9.278240
2023-01-17T05:06:21.877Z,9.278275
2023-01-17T05:07:21.819Z,9.278243
2023-01-17T05:08:21.806Z,9.278321
2023-01-17T05:09:21.788Z,9.278225
2023-01-17T05:10:21.792Z,9.278326
2023-01-17T05:11:21.769Z,9.278386
2023-01-17T05:12:21.727Z,9.278512
2023-01-17T05:13:21.731Z,9.278547
2023-01-17T05:14:21.716Z,9.278635
2023-01-17T05:15:21.747Z,9.278385
2023-01-17T05:16:21.703Z,9.278394
2023-01-17T05:17:21.645Z,9.278350
2023-01-17T05:18:21.637Z,9.278654
2023-01-17T05:19:21.609Z,9.277869
2023-01-17T05:20:21.624Z,9.278061
2023-01-17T05:21:21.574Z,9.278184
2023-01-17T05:22:21.567Z,9.278218
2023-01-17T05:23:21.540Z,9.278214
2023-01-17T05:24:21.534Z,9.278281
2023-01-17T05:25:21.548Z,9.278345
2023-01-17T05:26:21.488Z,9.278394
2023-01-17T05:27:21.493Z,9.278530
2023-01-17T05:28:21.481Z,9.278231
2023-01-17T05:29:21.443Z,9.278271
2023-01-17T05:30:21.471Z,9.278275
2023-01-17T05:31:21.450Z,9.278254
2023-01-17T05:32:22.392Z,9.278298
2023-01-17T05:33:21.382Z,9.278212
2023-01-17T05:34:21.360Z,9.278319
2023-01-17T05:35:21.366Z,9.278242
2023-01-17T05:36:21.328Z,9.278233
2023-01-17T05:37:21.307Z,9.278327
2023-01-17T05:38:21.284Z,9.278421
2023-01-17T05:39:21.283Z,9.278327
2023-01-17T05:40:21.279Z,9.278424
2023-01-17T05:41:21.251Z,9.278257
2023-01-17T05:42:21.229Z,9.278316
2023-01-17T05:43:22.241Z,9.278406
2023-01-17T05:44:22.180Z,9.278496
2023-01-17T05:45:21.215Z,9.278326
2023-01-17T05:46:21.201Z,9.278277
2023-01-17T05:47:21.142Z,9.278369
2023-01-17T05:48:21.131Z,9.278447
2023-01-17T05:49:21.111Z,9.278661
2023-01-17T05:50:21.109Z,9.278564
2023-01-17T05:51:21.103Z,9.278477
2023-01-17T05:52:21.049Z,9.278216
2023-01-17T05:53:21.026Z,9.278354
2023-01-17T05:54:21.019Z,9.278240
2023-01-17T05:55:21.025Z,9.278295
2023-01-17T05:56:20.987Z,9.278219
2023-01-17T05:57:20.971Z,9.278214
2023-01-17T05:58:20.958Z,9.278313
2023-01-17T05:59:32.402Z,9.278246
2023-01-17T06:00:22.970Z,9.278107
2023-01-17T06:01:20.939Z,9.278362
2023-01-17T06:02:20.905Z,9.278442
2023-01-17T06:03:20.873Z,9.278440
2023-01-17T06:04:20.879Z,9.278188
2023-01-17T06:05:20.874Z,9.278091
2023-01-17T06:06:20.810Z,9.277761
2023-01-17T06:07:20.809Z,9.278021
2023-01-17T06:08:20.774Z,9.278050
2023-01-17T06:09:53.303Z,9.278060
2023-01-17T06:10:20.801Z,9.278325
2023-01-17T06:11:20.744Z,9.278334
2023-01-17T06:12:22.103Z,9.278348
2023-01-17T06:13:21.701Z,9.278405
2023-01-17T06:14:20.678Z,9.278460
2023-01-17T06:15:20.663Z,9.278411
2023-01-17T06:16:20.723Z,9.278342
2023-01-17T06:17:20.632Z,9.278398
2023-01-17T06:18:20.611Z,9.278303
2023-01-17T06:19:20.603Z,9.278378
2023-01-17T06:20:20.583Z,9.278472
2023-01-17T06:21:20.674Z,9.278487
2023-01-17T06:22:20.541Z,9.278392
2023-01-17T06:23:20.543Z,9.278379
2023-01-17T06:24:20.515Z,9.278294
2023-01-17T06:25:20.494Z,9.278452
2023-01-17T06:26:20.514Z,9.278337
2023-01-17T06:27:20.470Z,9.278368
2023-01-17T06:28:20.436Z,9.278355
2023-01-17T06:29:20.422Z,9.278221
2023-01-17T06:30:20.398Z,9.278237
2023-01-17T06:31:20.429Z,9.278390
2023-01-17T06:32:20.372Z,9.278435
2023-01-17T06:33:20.347Z,9.278382
2023-01-17T06:34:20.331Z,9.278418
2023-01-17T06:35:20.335Z,9.278383
2023-01-17T06:36:20.346Z,9.278412
2023-01-17T06:37:20.278Z,9.278461
2023-01-17T06:38:20.258Z,9.278285
2023-01-17T06:39:20.247Z,9.278337
2023-01-17T06:40:20.224Z,9.278306
2023-01-17T06:41:20.247Z,9.278225
2023-01-17T06:42:20.210Z,9.278340
2023-01-17T06:43:20.340Z,9.278358
2023-01-17T06:44:20.181Z,9.278255
2023-01-17T06:45:20.156Z,9.278269
2023-01-17T06:46:20.218Z,9.278334
2023-01-17T06:47:20.103Z,9.278315
2023-01-17T06:48:20.114Z,9.278303
2023-01-17T06:49:20.068Z,9.278368
2023-01-17T06:50:20.134Z,9.278470
2023-01-17T06:51:20.082Z,9.278407
2023-01-17T06:52:20.030Z,9.278363
2023-01-17T06:53:20.003Z,9.278430
2023-01-17T06:54:19.991Z,9.278270
2023-01-17T06:55:19.974Z,9.278354
2023-01-17T06:56:19.988Z,9.278402
2023-01-17T06:57:19.938Z,9.278242
2023-01-17T06:58:19.959Z,9.278299
2023-01-17T06:59:19.887Z,9.278139
2023-01-17T07:00:19.877Z,9.278202
2023-01-17T07:01:20.064Z,9.278205
2023-01-17T07:02:19.865Z,9.278099
2023-01-17T07:03:19.858Z,9.278396
2023-01-17T07:04:19.816Z,9.278302
2023-01-17T07:05:19.805Z,9.278564
2023-01-17T07:06:20.808Z,9.278350
2023-01-17T07:07:19.770Z,9.278198
2023-01-17T07:08:19.766Z,9.278256
2023-01-17T07:09:19.722Z,9.278323
2023-01-17T07:10:19.712Z,9.278381
2023-01-17T07:11:19.737Z,9.278292
2023-01-17T07:12:19.674Z,9.278387
2023-01-17T07:13:19.665Z,9.278380
2023-01-17T07:14:19.650Z,9.278423
2023-01-17T07:15:20.635Z,9.278437
2023-01-17T07:16:19.671Z,9.278336
2023-01-17T07:17:19.591Z,9.278306
2023-01-17T07:18:19.581Z,9.278349
2023-01-17T07:19:19.588Z,9.278340
2023-01-17T07:20:19.544Z,9.278369
2023-01-17T07:21:19.564Z,9.278406
2023-01-17T07:22:19.513Z,9.278377
2023-01-17T07:23:19.491Z,9.278304
2023-01-17T07:24:19.472Z,9.278488
2023-01-17T07:25:19.489Z,9.278596
2023-01-17T07:26:19.468Z,9.278471
2023-01-17T07:27:19.420Z,9.278425
2023-01-17T07:28:19.403Z,9.278399
2023-01-17T07:29:19.389Z,9.278522
2023-01-17T07:30:19.375Z,9.278328
2023-01-17T07:31:19.512Z,9.278287
2023-01-17T07:32:19.331Z,9.278028
2023-01-17T07:33:19.326Z,9.277913
2023-01-17T07:34:19.307Z,9.277898
2023-01-17T07:35:19.292Z,9.278158
2023-01-17T07:36:19.609Z,9.278137
2023-01-17T07:37:19.260Z,9.278188
2023-01-17T07:38:19.322Z,9.278268
2023-01-17T07:39:19.259Z,9.278511
2023-01-17T07:40:19.197Z,9.278475
2023-01-17T07:41:19.235Z,9.278376
2023-01-17T07:42:19.198Z,9.278247
2023-01-17T07:43:19.161Z,9.278148
2023-01-17T07:44:19.128Z,9.278220
2023-01-17T07:45:19.121Z,9.278360
2023-01-17T07:46:19.173Z,9.278213
2023-01-17T07:47:19.076Z,9.277976
2023-01-17T07:48:19.055Z,9.277782
2023-01-17T07:49:19.061Z,9.277875
2023-01-17T07:50:19.038Z,9.278076
2023-01-17T07:51:19.052Z,9.278093
2023-01-17T07:52:18.992Z,9.278099
2023-01-17T07:53:18.978Z,9.278024
2023-01-17T07:54:18.984Z,9.278083
2023-01-17T07:55:18.941Z,9.278057
2023-01-17T07:56:18.985Z,9.278323
2023-01-17T07:57:18.912Z,9.278362
2023-01-17T07:58:18.887Z,9.278349
2023-01-17T07:59:18.868Z,9.278446
2023-01-17T08:00:18.853Z,9.278290
2023-01-17T08:01:18.924Z,9.278148
2023-01-17T08:02:18.816Z,9.278189
2023-01-17T08:03:18.852Z,9.278152
2023-01-17T08:04:18.795Z,9.278100
2023-01-17T08:05:18.771Z,9.278117
2023-01-17T08:06:18.830Z,9.278157
2023-01-17T08:07:18.741Z,9.278028
2023-01-17T08:08:18.722Z,9.278172
2023-01-17T08:09:18.688Z,9.278046
2023-01-17T08:10:18.696Z,9.278026
2023-01-17T08:11:18.682Z,9.278194
2023-01-17T08:12:18.644Z,9.278175
2023-01-17T08:13:18.628Z,9.278101
2023-01-17T08:14:18.607Z,9.278226
2023-01-17T08:15:18.604Z,9.278058
2023-01-17T08:16:18.659Z,9.278126
2023-01-17T08:17:18.565Z,9.278043
2023-01-17T08:18:18.652Z,9.278010
2023-01-17T08:19:18.541Z,9.277961
2023-01-17T08:20:18.498Z,9.277835
2023-01-17T08:21:19.535Z,9.277777
2023-01-17T08:22:18.494Z,9.277705
2023-01-17T08:23:18.471Z,9.277850
2023-01-17T08:24:18.435Z,9.277987
2023-01-17T08:25:18.464Z,9.277810
2023-01-17T08:26:18.439Z,9.277175
2023-01-17T08:27:18.389Z,9.277792
2023-01-17T08:28:18.360Z,9.278134
2023-01-17T08:29:18.345Z,9.278153
2023-01-17T08:30:18.334Z,9.278162
2023-01-17T08:31:18.371Z,9.278224
2023-01-17T08:32:18.332Z,9.278234
2023-01-17T08:33:18.345Z,9.278061
2023-01-17T08:34:18.265Z,9.278339
2023-01-17T08:35:18.237Z,9.278642
2023-01-17T08:36:18.241Z,9.278796
2023-01-17T08:37:18.282Z,9.278502
2023-01-17T08:38:18.226Z,9.278177
2023-01-17T08:39:18.171Z,9.278009
2023-01-17T08:40:18.866Z,9.278193
2023-01-17T08:41:18.155Z,9.278371
2023-01-17T08:42:18.171Z,9.278420
2023-01-17T08:43:18.115Z,9.278433
2023-01-17T08:44:18.093Z,9.278409
2023-01-17T08:45:18.130Z,9.278526
2023-01-17T08:46:18.073Z,9.278180
2023-01-17T08:47:18.136Z,9.278213
2023-01-17T08:48:18.025Z,9.277911
2023-01-17T08:49:18.013Z,9.277984
2023-01-17T08:50:17.986Z,9.278042
2023-01-17T08:51:17.978Z,9.278195
2023-01-17T08:52:17.982Z,9.278458
2023-01-17T08:53:17.940Z,9.279024
2023-01-17T08:54:17.989Z,9.278529
2023-01-17T08:55:17.948Z,9.278228
2023-01-17T08:56:17.910Z,9.276969
2023-01-17T08:57:17.892Z,9.275853
2023-01-17T08:58:17.841Z,9.275099
2023-01-17T08:59:17.825Z,9.273273
2023-01-17T09:00:17.799Z,9.272256
2023-01-17T09:01:17.885Z,9.270708
2023-01-17T09:02:18.825Z,9.270862
2023-01-17T09:03:17.760Z,9.271820
2023-01-17T09:04:17.792Z,9.279041
2023-01-17T09:05:17.728Z,9.275730
2023-01-17T09:06:17.733Z,9.276517
2023-01-17T09:07:17.781Z,9.277123
2023-01-17T09:08:17.688Z,9.277215
2023-01-17T09:09:17.649Z,9.277434
2023-01-17T09:10:17.653Z,9.277499
2023-01-17T09:11:17.656Z,9.276915
2023-01-17T09:12:17.646Z,9.277815
2023-01-17T09:13:17.615Z,9.277594
2023-01-17T09:14:17.621Z,9.277594
2023-01-17T09:15:17.549Z,9.277594
2023-01-17T09:16:17.572Z,9.278152
2023-01-17T09:17:17.613Z,9.278667
2023-01-17T09:18:17.504Z,9.278729
2023-01-17T09:19:17.554Z,9.278577
2023-01-17T09:20:17.515Z,9.278784
2023-01-17T09:21:17.464Z,9.278698
2023-01-17T09:22:17.512Z,9.278458
2023-01-17T09:23:17.542Z,9.278359
2023-01-17T09:24:17.402Z,9.278407
2023-01-17T09:25:17.389Z,9.278461
2023-01-17T09:26:17.364Z,9.277889
2023-01-17T09:27:17.448Z,9.278065
2023-01-17T09:28:17.369Z,9.278273
2023-01-17T09:29:17.309Z,9.278466
2023-01-17T09:30:17.338Z,9.278468
2023-01-17T09:31:17.673Z,9.278160
2023-01-17T09:32:18.302Z,9.278177
2023-01-17T09:33:17.252Z,9.278130
2023-01-17T09:34:17.234Z,9.278237
2023-01-17T09:35:17.226Z,9.278196
2023-01-17T09:36:17.197Z,9.278345
2023-01-17T09:37:17.211Z,9.278238
2023-01-17T09:38:17.165Z,9.278261
2023-01-17T09:39:17.162Z,9.278393
2023-01-17T09:40:17.201Z,9.277952
2023-01-17T09:41:17.100Z,9.277727
2023-01-17T09:42:17.166Z,9.277725
2023-01-17T09:43:17.132Z,9.277513
2023-01-17T09:44:17.066Z,9.277656
2023-01-17T09:45:17.045Z,9.277682
2023-01-17T09:46:17.081Z,9.276958
2023-01-17T09:47:17.154Z,9.276210
2023-01-17T09:48:16.983Z,9.277291
2023-01-17T09:49:16.964Z,9.277753
2023-01-17T09:50:16.956Z,9.277581
2023-01-17T09:51:16.982Z,9.277888
2023-01-17T09:52:16.952Z,9.278049
2023-01-17T09:53:16.901Z,9.277973
2023-01-17T09:54:16.876Z,9.277958
2023-01-17T09:55:16.872Z,9.278071
2023-01-17T09:56:16.857Z,9.278208
2023-01-17T09:57:16.865Z,9.278232
2023-01-17T09:58:16.816Z,9.278332
2023-01-17T09:59:18.754Z,9.278403
2023-01-17T10:00:17.791Z,9.278349
2023-01-17T10:01:16.922Z,9.277990
2023-01-17T10:02:16.999Z,9.278385
2023-01-17T10:03:16.984Z,9.278394
2023-01-17T10:04:16.817Z,9.278394
2023-01-17T10:05:16.696Z,9.278187
2023-01-17T10:06:16.684Z,9.278189
2023-01-17T10:07:16.686Z,9.278192
2023-01-17T10:08:16.638Z,9.278614
2023-01-17T10:09:16.718Z,9.278501
2023-01-17T10:10:16.615Z,9.278383
2023-01-17T10:11:16.585Z,9.278362
2023-01-17T10:12:16.612Z,9.278277
2023-01-17T10:13:16.556Z,9.278300
2023-01-17T10:14:16.556Z,9.278281
2023-01-17T10:15:16.545Z,9.278259
2023-01-17T10:16:16.549Z,9.278161
2023-01-17T10:17:16.529Z,9.278209
2023-01-17T10:18:28.905Z,9.278376
2023-01-17T10:19:18.453Z,9.278340
2023-01-17T10:20:17.430Z,9.278443
2023-01-17T10:21:16.414Z,9.278296
2023-01-17T10:22:17.468Z,9.278170
2023-01-17T10:23:16.397Z,9.278165
2023-01-17T10:24:16.444Z,9.278214
2023-01-17T10:25:16.368Z,9.278240
2023-01-17T10:26:16.354Z,9.278304
2023-01-17T10:27:16.405Z,9.278262
2023-01-17T10:28:16.390Z,9.278383
2023-01-17T10:29:16.297Z,9.278475
2023-01-17T10:30:16.272Z,9.278403
2023-01-17T10:31:16.309Z,9.278358
2023-01-17T10:32:16.280Z,9.278442
2023-01-17T10:33:16.225Z,9.278565
2023-01-17T10:34:16.198Z,9.278334
2023-01-17T10:35:16.200Z,9.278221
2023-01-17T10:36:16.162Z,9.278116
2023-01-17T10:37:16.173Z,9.277910
2023-01-17T10:38:16.118Z,9.278315
2023-01-17T10:39:17.116Z,9.278153
2023-01-17T10:40:16.111Z,9.278157
2023-01-17T10:41:16.086Z,9.278298
2023-01-17T10:42:16.087Z,9.278284
2023-01-17T10:43:16.079Z,9.278298
2023-01-17T10:44:16.026Z,9.278317
2023-01-17T10:45:16.010Z,9.278269
2023-01-17T10:46:16.143Z,9.278260
2023-01-17T10:47:16.024Z,9.278287
2023-01-17T10:48:15.968Z,9.278357
2023-01-17T10:49:15.970Z,9.278330
2023-01-17T10:50:15.979Z,9.278365
2023-01-17T10:51:15.901Z,9.278403
2023-01-17T10:52:15.910Z,9.278434
2023-01-17T10:53:15.894Z,9.278340
2023-01-17T10:54:15.859Z,9.278324
2023-01-17T10:55:15.838Z,9.278369
2023-01-17T10:56:15.817Z,9.278277
2023-01-17T10:57:15.842Z,9.278245
2023-01-17T10:58:15.780Z,9.278306
2023-01-17T10:59:15.824Z,9.278315
2023-01-17T11:00:15.746Z,9.278323
2023-01-17T11:01:15.858Z,9.278309
2023-01-17T11:02:15.857Z,9.278240
2023-01-17T11:03:15.705Z,9.278329
2023-01-17T11:04:15.682Z,9.278315
2023-01-17T11:05:15.780Z,9.278274
2023-01-17T11:06:15.644Z,9.278288
2023-01-17T11:07:15.690Z,9.278267
2023-01-17T11:08:15.678Z,9.278184
2023-01-17T11:09:15.633Z,9.278111
2023-01-17T11:10:15.572Z,9.278404
2023-01-17T11:11:15.574Z,9.278255
2023-01-17T11:12:15.575Z,9.278278
2023-01-17T11:13:15.531Z,9.278262
2023-01-17T11:14:15.520Z,9.278319
2023-01-17T11:15:15.500Z,9.278336
2023-01-17T11:16:15.507Z,9.278265
2023-01-17T11:17:15.761Z,9.278157
2023-01-17T11:18:15.449Z,9.278250
2023-01-17T11:19:15.474Z,9.278224
2023-01-17T11:20:15.429Z,9.278094
2023-01-17T11:21:15.381Z,9.278252
2023-01-17T11:22:15.442Z,9.278170
2023-01-17T11:23:15.382Z,9.278299
2023-01-17T11:24:15.369Z,9.278210
2023-01-17T11:25:15.351Z,9.278203
2023-01-17T11:26:15.328Z,9.278260
2023-01-17T11:27:15.325Z,9.278193
2023-01-17T11:28:15.305Z,9.278176
2023-01-17T11:29:15.272Z,9.278090
2023-01-17T11:30:15.238Z,9.278253
2023-01-17T11:31:15.288Z,9.278188
2023-01-17T11:32:15.244Z,9.278050
2023-01-17T11:33:15.190Z,9.277993
2023-01-17T11:34:16.199Z,9.278221
2023-01-17T11:35:15.211Z,9.278229
2023-01-17T11:36:15.132Z,9.278233
2023-01-17T11:37:15.123Z,9.278210
2023-01-17T11:38:15.135Z,9.278204
2023-01-17T11:39:15.164Z,9.278210
2023-01-17T11:40:15.214Z,9.278203
2023-01-17T11:41:15.112Z,9.278208
2023-01-17T11:42:15.032Z,9.278232
2023-01-17T11:43:15.043Z,9.278179
2023-01-17T11:44:15.005Z,9.278207